Time;durP1;ratioP1;P1;durP2;ratioP2;P2;SDS_P1;SDS_P2;PMS_P1;PMS_P2;Temp;Humidity;BMP_temperature;BMP_pressure;BME280_temperature;BME280_humidity;BME280_pressure;Samples;Min_cycle;Max_cycle;Signal;HPM_P1;HPM_P2
2023/09/08 00:00:09;;;;;;;5.37;4.53;;;;;;;12.24;100.00;98391.16;6221798;28;20242;-57
2023/09/08 00:03:11;;;;;;;5.60;4.70;;;;;;;12.20;100.00;98402.53;6219389;28;20291;-59
2023/09/08 00:06:13;;;;;;;7.57;4.57;;;;;;;12.18;100.00;98399.28;6218998;28;20219;-60
2023/09/08 00:09:15;;;;;;;6.03;5.07;;;;;;;12.13;100.00;98392.78;6217386;28;20322;-58
2023/09/08 00:12:17;;;;;;;6.50;4.67;;;;;;;12.06;100.00;98385.94;6217749;28;20315;-59
2023/09/08 00:15:19;;;;;;;4.63;4.17;;;;;;;12.08;100.00;98391.88;6215943;28;20299;-60
2023/09/08 00:18:21;;;;;;;6.37;4.60;;;;;;;12.07;100.00;98388.41;6214916;28;20248;-59
2023/09/08 00:21:23;;;;;;;5.30;4.37;;;;;;;12.06;100.00;98383.28;6216514;28;20637;-59
2023/09/08 00:24:25;;;;;;;5.17;4.50;;;;;;;12.06;100.00;98384.06;6219009;28;21011;-61
2023/09/08 00:27:27;;;;;;;5.40;4.57;;;;;;;12.05;100.00;98382.47;6214516;28;20704;-61
2023/09/08 00:30:29;;;;;;;4.93;4.23;;;;;;;11.96;100.00;98372.38;6217775;28;20312;-61
2023/09/08 00:33:32;;;;;;;5.83;4.67;;;;;;;12.01;100.00;98377.81;6215286;28;20234;-60
2023/09/08 00:36:36;;;;;;;5.60;4.43;;;;;;;11.98;100.00;98378.31;6217368;28;20677;-59
2023/09/08 00:39:38;;;;;;;6.03;4.23;;;;;;;11.94;100.00;98377.94;6220341;28;20228;-60
2023/09/08 00:42:40;;;;;;;7.30;4.30;;;;;;;11.87;100.00;98371.91;6214552;28;20575;-61
2023/09/08 00:45:43;;;;;;;16.27;5.30;;;;;;;11.91;100.00;98380.25;6216826;28;20219;-60
2023/09/08 00:48:45;;;;;;;6.53;4.30;;;;;;;11.87;100.00;98375.41;6216171;28;20710;-60
2023/09/08 00:51:48;;;;;;;5.87;3.93;;;;;;;11.88;100.00;98368.22;6211531;28;20764;-60
2023/09/08 00:54:50;;;;;;;5.33;4.43;;;;;;;11.82;100.00;98361.94;6216926;28;20235;-59
2023/09/08 00:57:52;;;;;;;5.53;4.50;;;;;;;11.84;100.00;98370.53;6218244;28;20219;-60
2023/09/08 01:00:57;;;;;;;6.47;4.77;;;;;;;11.80;100.00;98373.84;6216623;28;20235;-58
2023/09/08 01:04:00;;;;;;;4.67;4.23;;;;;;;11.66;100.00;98362.59;6217451;28;20325;-60
2023/09/08 01:07:03;;;;;;;10.43;4.67;;;;;;;11.78;100.00;98371.44;6215141;28;20703;-59
2023/09/08 01:10:06;;;;;;;6.60;4.23;;;;;;;11.79;100.00;98378.38;6216381;28;20240;-59
2023/09/08 01:13:08;;;;;;;7.63;4.17;;;;;;;11.75;100.00;98371.06;6219815;28;20258;-60
2023/09/08 01:16:10;;;;;;;6.20;4.30;;;;;;;11.74;100.00;98367.59;6217553;28;20224;-59
2023/09/08 01:19:16;;;;;;;4.17;3.77;;;;;;;11.65;100.00;98357.50;6215029;28;20318;-59
2023/09/08 01:22:44;;;;;;;4.43;3.93;;;;;;;11.74;100.00;98364.13;6215506;28;20250;-57
2023/09/08 01:25:55;;;;;;;5.03;4.17;;;;;;;11.71;100.00;98368.03;6217610;28;20744;-56
2023/09/08 01:28:58;;;;;;;4.77;4.23;;;;;;;11.71;100.00;98367.22;6208820;28;20229;-59
2023/09/08 01:32:01;;;;;;;5.53;3.93;;;;;;;11.62;100.00;98348.91;6214980;28;20250;-58
2023/09/08 01:35:04;;;;;;;7.00;4.33;;;;;;;11.67;100.00;98366.88;6213859;28;20271;-57
2023/09/08 01:38:07;;;;;;;5.50;4.13;;;;;;;11.62;100.00;98361.41;6213311;28;20786;-58
2023/09/08 01:41:09;;;;;;;5.87;4.43;;;;;;;11.68;100.00;98360.53;6215555;28;20764;-58
2023/09/08 01:44:11;;;;;;;4.73;4.23;;;;;;;11.59;100.00;98357.38;6217516;28;20230;-58
2023/09/08 01:47:13;;;;;;;5.53;4.13;;;;;;;11.65;100.00;98362.84;6215186;28;20238;-58
2023/09/08 01:50:21;;;;;;;6.70;4.40;;;;;;;11.60;100.00;98369.66;6216780;28;20240;-59
2023/09/08 01:53:23;;;;;;;5.10;3.90;;;;;;;11.55;100.00;98361.53;6214122;28;21595;-60
2023/09/08 01:56:26;;;;;;;5.13;4.20;;;;;;;11.53;100.00;98362.84;6213486;28;20236;-58
2023/09/08 01:59:28;;;;;;;6.90;4.50;;;;;;;11.43;100.00;98352.72;6216770;28;20246;-60
2023/09/08 02:02:30;;;;;;;6.00;4.23;;;;;;;11.47;100.00;98363.72;6216778;28;20322;-56
2023/09/08 02:05:32;;;;;;;4.30;3.90;;;;;;;11.46;100.00;98356.78;6231506;28;20316;-60
2023/09/08 02:08:34;;;;;;;6.47;4.30;;;;;;;11.39;100.00;98354.22;6210223;28;20243;-58
2023/09/08 02:11:36;;;;;;;6.10;4.60;;;;;;;11.45;100.00;98358.63;6212473;28;20827;-57
2023/09/08 02:14:38;;;;;;;5.03;4.30;;;;;;;11.26;100.00;98330.44;6214538;28;20262;-60
2023/09/08 02:17:41;;;;;;;5.93;4.60;;;;;;;11.45;100.00;98355.16;6217543;28;20235;-59
2023/09/08 02:20:43;;;;;;;7.00;4.73;;;;;;;11.40;100.00;98353.19;6217841;28;20251;-59
2023/09/08 02:23:46;;;;;;;6.37;4.53;;;;;;;11.38;100.00;98349.94;6211916;28;20732;-59
2023/09/08 02:26:48;;;;;;;5.67;4.67;;;;;;;11.29;100.00;98345.97;6208934;28;20239;-59
2023/09/08 02:29:51;;;;;;;5.57;4.10;;;;;;;11.35;100.00;98356.53;6215352;28;20240;-57
2023/09/08 02:32:55;;;;;;;5.93;4.33;;;;;;;11.31;100.00;98352.69;6219462;28;20341;-57
2023/09/08 02:36:04;;;;;;;6.27;4.47;;;;;;;11.31;100.00;98351.88;6220222;28;20232;-60
2023/09/08 02:39:09;;;;;;;6.33;4.03;;;;;;;11.29;100.00;98348.66;6211951;28;20278;-60
2023/09/08 02:42:11;;;;;;;5.03;4.53;;;;;;;11.30;100.00;98355.59;6220391;28;20298;-59
2023/09/08 02:45:14;;;;;;;6.50;4.80;;;;;;;11.28;100.00;98350.50;6212368;28;20230;-60
2023/09/08 02:48:17;;;;;;;5.20;4.00;;;;;;;11.25;100.00;98345.63;6250553;28;20215;-59
2023/09/08 02:51:19;;;;;;;7.40;4.53;;;;;;;11.24;100.00;98349.34;6215387;28;20356;-60
2023/09/08 02:54:22;;;;;;;5.60;4.80;;;;;;;11.09;100.00;98320.44;6218968;28;20234;-60
2023/09/08 02:57:24;;;;;;;6.37;4.47;;;;;;;11.23;100.00;98342.38;6221037;28;20223;-58
2023/09/08 03:00:27;;;;;;;5.10;4.03;;;;;;;11.21;100.00;98347.13;6212543;28;20235;-59
2023/09/08 03:03:29;;;;;;;6.23;4.77;;;;;;;11.14;100.00;98338.41;6220673;28;20234;-61
2023/09/08 03:06:32;;;;;;;7.23;4.70;;;;;;;11.19;100.00;98346.53;6206948;28;20759;-60
2023/09/08 03:09:34;;;;;;;7.03;4.33;;;;;;;11.21;100.00;98348.97;6219601;28;20239;-58
2023/09/08 03:12:37;;;;;;;5.67;4.47;;;;;;;11.16;100.00;98348.84;6220714;28;20390;-61
2023/09/08 03:15:40;;;;;;;5.73;4.63;;;;;;;11.12;100.00;98343.16;6225719;28;20228;-60
2023/09/08 03:18:42;;;;;;;6.47;4.53;;;;;;;11.10;100.00;98339.91;6216624;28;20708;-58
2023/09/08 03:21:45;;;;;;;5.10;4.60;;;;;;;11.09;100.00;98339.09;6218602;28;20262;-59
2023/09/08 03:24:47;;;;;;;6.70;4.60;;;;;;;11.08;100.00;98344.66;6221263;28;20236;-60
2023/09/08 03:27:49;;;;;;;5.00;4.30;;;;;;;10.95;100.00;98326.19;6217986;28;20683;-59
2023/09/08 03:30:52;;;;;;;5.23;4.70;;;;;;;11.02;100.00;98346.38;6216814;28;20946;-60
2023/09/08 03:33:54;;;;;;;5.93;4.70;;;;;;;11.03;100.00;98349.84;6216254;28;20284;-60
2023/09/08 03:36:57;;;;;;;5.17;4.67;;;;;;;10.94;100.00;98329.91;6217374;28;20250;-58
2023/09/08 03:40:00;;;;;;;5.90;4.90;;;;;;;11.01;100.00;98341.28;6218844;28;20232;-59
2023/09/08 03:43:04;;;;;;;6.50;4.73;;;;;;;10.99;100.00;98343.38;6246320;28;20238;-59
2023/09/08 03:46:06;;;;;;;4.93;4.47;;;;;;;10.96;100.00;98346.47;6218991;28;20250;-61
2023/09/08 03:49:09;;;;;;;6.43;4.90;;;;;;;10.88;100.00;98328.13;6216931;28;20234;-61
2023/09/08 03:52:12;;;;;;;5.13;4.63;;;;;;;10.94;100.00;98340.59;6216982;28;20776;-56
2023/09/08 03:55:16;;;;;;;5.33;4.40;;;;;;;10.94;100.00;98344.06;6196727;28;20906;-59
2023/09/08 03:58:19;;;;;;;6.93;4.90;;;;;;;10.95;100.00;98350.19;6176389;28;20754;-58
2023/09/08 04:01:22;;;;;;;6.43;4.93;;;;;;;10.94;100.00;98343.25;6157465;28;20256;-60
2023/09/08 04:04:25;;;;;;;5.67;5.10;;;;;;;10.89;100.00;98343.94;6166305;28;20602;-56
2023/09/08 04:07:27;;;;;;;5.53;4.60;;;;;;;10.87;100.00;98345.19;6193600;28;20235;-60
2023/09/08 04:10:30;;;;;;;5.53;4.93;;;;;;;10.88;100.00;98349.47;6215800;28;20308;-60
2023/09/08 04:13:32;;;;;;;7.03;5.43;;;;;;;10.87;100.00;98348.66;6217695;28;20238;-58
2023/09/08 04:16:35;;;;;;;5.80;5.20;;;;;;;10.85;100.00;98342.75;6220154;28;20242;-56
2023/09/08 04:19:38;;;;;;;5.37;4.70;;;;;;;10.84;100.00;98349.94;6217279;28;20315;-60
2023/09/08 04:22:42;;;;;;;5.47;4.97;;;;;;;10.64;100.00;98324.56;6215974;28;20626;-57
2023/09/08 04:25:46;;;;;;;6.27;4.77;;;;;;;10.81;100.00;98346.91;6212139;28;20224;-59
2023/09/08 04:28:48;;;;;;;6.07;4.97;;;;;;;10.80;100.00;98351.41;6220015;28;20236;-58
2023/09/08 04:31:51;;;;;;;7.13;4.67;;;;;;;10.79;100.00;98349.00;6218483;28;20226;-60
2023/09/08 04:34:53;;;;;;;7.13;4.73;;;;;;;10.80;100.00;98369.28;6216062;28;20755;-60
2023/09/08 04:37:55;;;;;;;6.40;5.13;;;;;;;10.80;100.00;98362.09;6215650;28;20613;-56
2023/09/08 04:40:58;;;;;;;6.50;5.10;;;;;;;10.81;100.00;98362.88;6214549;28;20232;-55
2023/09/08 04:44:00;;;;;;;5.83;4.87;;;;;;;10.82;100.00;98367.19;6215656;28;20802;-60
2023/09/08 04:47:04;;;;;;;5.70;5.13;;;;;;;10.83;100.00;98369.59;6210208;28;20240;-60
2023/09/08 04:50:07;;;;;;;6.63;4.83;;;;;;;10.86;100.00;98368.34;6218371;28;20740;-59
2023/09/08 04:53:11;;;;;;;6.93;6.13;;;;;;;10.90;100.00;98363.41;6215913;28;20258;-59
2023/09/08 04:56:14;;;;;;;6.73;5.80;;;;;;;10.92;100.00;98367.44;6213597;28;20231;-60
2023/09/08 04:59:17;;;;;;;6.53;5.70;;;;;;;10.94;100.00;98368.03;6214868;28;20236;-56
2023/09/08 05:02:19;;;;;;;7.47;5.73;;;;;;;10.98;100.00;98371.03;6214220;28;20717;-57
2023/09/08 05:05:22;;;;;;;9.80;5.80;;;;;;;11.00;100.00;98364.47;6214291;28;20271;-60
2023/09/08 05:08:25;;;;;;;5.90;5.30;;;;;;;11.02;100.00;98372.22;6215002;28;20619;-59
2023/09/08 05:11:27;;;;;;;5.47;4.97;;;;;;;10.99;100.00;98360.19;6247808;28;20243;-57
2023/09/08 05:14:30;;;;;;;5.93;5.33;;;;;;;11.06;100.00;98370.75;6193815;28;20238;-60
2023/09/08 05:17:33;;;;;;;7.27;6.57;;;;;;;11.09;100.00;98367.63;6215155;28;20310;-59
2023/09/08 05:20:36;;;;;;;6.23;5.63;;;;;;;11.14;100.00;98372.28;6209412;28;20228;-60
2023/09/08 05:23:40;;;;;;;7.03;6.33;;;;;;;11.16;100.00;98367.50;6217740;28;20718;-60
2023/09/08 05:26:44;;;;;;;10.37;6.90;;;;;;;11.20;100.00;98376.69;6212888;28;20232;-58
2023/09/08 05:29:47;;;;;;;6.07;5.47;;;;;;;11.24;100.00;98380.53;6214719;28;20531;-60
2023/09/08 05:32:49;;;;;;;5.90;5.30;;;;;;;11.29;100.00;98378.00;6214997;28;20228;-59
2023/09/08 05:35:52;;;;;;;7.03;5.53;;;;;;;11.31;100.00;98381.22;6212655;28;20239;-60
2023/09/08 05:38:55;;;;;;;7.47;6.63;;;;;;;11.35;100.00;98379.72;6197009;28;20314;-56
2023/09/08 05:41:58;;;;;;;8.23;6.07;;;;;;;11.25;100.00;98366.16;6168171;28;20230;-58
2023/09/08 05:45:01;;;;;;;7.40;6.00;;;;;;;11.46;100.00;98386.13;6214896;28;20769;-55
2023/09/08 05:48:03;;;;;;;7.50;5.97;;;;;;;11.51;100.00;98391.59;6189051;28;20235;-57
2023/09/08 05:51:06;;;;;;;6.93;5.53;;;;;;;11.54;100.00;98391.13;6230618;28;20299;-58
2023/09/08 05:54:09;;;;;;;6.00;5.43;;;;;;;11.59;100.00;98394.75;6196675;28;20367;-60
2023/09/08 05:57:12;;;;;;;6.13;5.43;;;;;;;11.64;100.00;98391.38;6186254;28;20208;-58
2023/09/08 06:00:15;;;;;;;6.93;4.83;;;;;;;11.70;100.00;98386.97;6192977;28;20235;-58
2023/09/08 06:03:22;;;;;;;6.50;5.30;;;;;;;11.74;100.00;98399.63;6195028;28;20232;-59
2023/09/08 06:06:28;;;;;;;6.13;5.50;;;;;;;11.77;100.00;98393.00;6196534;28;20246;-54
2023/09/08 06:09:30;;;;;;;6.50;5.50;;;;;;;11.82;100.00;98385.97;6221927;28;20239;-50
2023/09/08 06:12:33;;;;;;;7.10;5.60;;;;;;;11.87;100.00;98399.44;6219048;28;20710;-54
2023/09/08 06:15:36;;;;;;;5.70;5.07;;;;;;;11.83;100.00;98373.44;6215352;28;20725;-48
2023/09/08 06:18:43;;;;;;;5.50;5.00;;;;;;;12.01;100.00;98391.16;6220027;28;20251;-49
2023/09/08 06:21:51;;;;;;;6.20;5.33;;;;;;;12.07;100.00;98384.91;6221187;28;20318;-50
2023/09/08 06:24:53;;;;;;;7.30;5.67;;;;;;;12.09;100.00;98375.59;6220594;28;20327;-48
2023/09/08 06:27:56;;;;;;;6.00;5.40;;;;;;;12.24;100.00;98387.66;6219198;28;20232;-46
2023/09/08 06:30:59;;;;;;;6.27;5.10;;;;;;;12.33;100.00;98378.25;6214120;28;20290;-48
2023/09/08 06:34:01;;;;;;;5.97;4.57;;;;;;;12.45;100.00;98387.03;6222196;28;20704;-49
2023/09/08 06:37:04;;;;;;;6.03;5.23;;;;;;;12.57;100.00;98381.69;6206140;28;20701;-48
2023/09/08 06:40:08;;;;;;;11.60;9.20;;;;;;;12.72;100.00;98381.16;6218062;28;20236;-46
2023/09/08 06:43:10;;;;;;;7.30;6.00;;;;;;;12.88;100.00;98375.84;6220326;28;20232;-47
2023/09/08 06:46:22;;;;;;;6.00;5.40;;;;;;;12.98;100.00;98367.19;6184743;28;20244;-50
2023/09/08 06:49:25;;;;;;;7.03;5.90;;;;;;;13.22;100.00;98375.13;6194489;28;20244;-47
2023/09/08 06:52:28;;;;;;;6.03;5.13;;;;;;;13.43;100.00;98374.41;6206032;28;20239;-50
2023/09/08 06:55:31;;;;;;;8.03;5.40;;;;;;;13.61;100.00;98378.72;6180815;28;20232;-49
2023/09/08 06:58:33;;;;;;;7.40;5.63;;;;;;;13.94;100.00;98375.22;6194806;28;20237;-49
2023/09/08 07:01:38;;;;;;;6.83;5.50;;;;;;;14.21;100.00;98375.31;6195727;28;20295;-49
2023/09/08 07:04:41;;;;;;;6.40;5.20;;;;;;;14.54;100.00;98379.78;6197790;28;20263;-49
2023/09/08 07:07:44;;;;;;;7.73;5.43;;;;;;;14.76;100.00;98373.56;6210956;28;20233;-46
2023/09/08 07:10:53;;;;;;;7.80;5.10;;;;;;;14.90;100.00;98375.63;6221233;28;20305;-47
2023/09/08 07:13:56;;;;;;;8.97;6.60;;;;;;;15.02;100.00;98374.66;6217670;28;20237;-49
2023/09/08 07:16:59;;;;;;;6.33;5.70;;;;;;;15.20;100.00;98385.03;6233782;28;20236;-45
2023/09/08 07:20:03;;;;;;;5.00;4.50;;;;;;;15.38;98.00;98378.50;6235783;28;20240;-47
2023/09/08 07:23:06;;;;;;;8.63;5.33;;;;;;;15.54;97.08;98380.22;6219645;28;20228;-49
2023/09/08 07:26:09;;;;;;;6.17;4.83;;;;;;;15.71;94.08;98367.50;6216974;28;20292;-48
2023/09/08 07:29:13;;;;;;;5.90;4.43;;;;;;;16.01;93.36;98374.16;6217256;28;20231;-49
2023/09/08 07:32:17;;;;;;;6.20;4.60;;;;;;;16.21;90.17;98362.69;6218734;28;20605;-51
2023/09/08 07:35:20;;;;;;;6.50;5.23;;;;;;;16.43;89.96;98375.97;6216613;28;20746;-49
2023/09/08 07:38:23;;;;;;;5.53;4.60;;;;;;;16.61;89.47;98364.75;6211245;28;20236;-49
2023/09/08 07:41:26;;;;;;;6.47;5.00;;;;;;;16.79;87.76;98368.84;6219659;28;20697;-50
2023/09/08 07:44:29;;;;;;;6.03;4.80;;;;;;;17.00;84.60;98367.03;6220643;28;20263;-49
2023/09/08 07:47:32;;;;;;;7.07;4.90;;;;;;;17.19;84.98;98362.75;6217890;28;20310;-48
2023/09/08 07:50:34;;;;;;;6.30;4.27;;;;;;;17.21;82.78;98339.06;6222659;28;20220;-50
2023/09/08 07:53:37;;;;;;;5.50;4.77;;;;;;;17.57;80.10;98363.28;6229764;28;20235;-47
2023/09/08 07:56:42;;;;;;;5.97;4.73;;;;;;;17.78;79.34;98362.25;6221374;28;20223;-48
2023/09/08 07:59:45;;;;;;;6.03;4.10;;;;;;;17.95;79.06;98370.03;6218882;28;20610;-50
2023/09/08 08:02:50;;;;;;;6.83;4.70;;;;;;;18.11;78.23;98362.69;6220660;28;20228;-51
2023/09/08 08:05:53;;;;;;;5.27;4.30;;;;;;;18.56;71.81;98361.72;6221609;28;20240;-47
2023/09/08 08:08:56;;;;;;;6.70;4.17;;;;;;;18.72;74.02;98365.22;6217483;28;20233;-49
2023/09/08 08:12:00;;;;;;;6.53;4.57;;;;;;;18.78;73.87;98379.50;6220262;28;20819;-47
2023/09/08 08:15:04;;;;;;;5.73;4.10;;;;;;;18.73;73.26;98353.31;6217199;28;20228;-48
2023/09/08 08:18:09;;;;;;;6.77;4.43;;;;;;;18.95;72.17;98371.81;6216402;28;20227;-47
2023/09/08 08:21:12;;;;;;;6.57;4.50;;;;;;;19.31;68.27;98380.50;6219824;28;20244;-50
2023/09/08 08:24:15;;;;;;;5.87;4.13;;;;;;;19.60;63.69;98363.53;6217713;28;20225;-50
2023/09/08 08:27:17;;;;;;;5.30;4.13;;;;;;;19.87;64.48;98371.16;6219565;28;20236;-48
2023/09/08 08:30:20;;;;;;;6.77;4.43;;;;;;;20.05;64.57;98369.63;6218683;28;20227;-51
2023/09/08 08:33:25;;;;;;;5.30;4.43;;;;;;;20.10;65.20;98375.00;6220922;28;20224;-50
2023/09/08 08:36:28;;;;;;;4.73;3.90;;;;;;;20.20;63.67;98366.75;6213700;28;20728;-52
2023/09/08 08:39:31;;;;;;;11.67;5.57;;;;;;;20.21;59.64;98343.22;6220113;28;20251;-48
2023/09/08 08:42:33;;;;;;;6.80;4.23;;;;;;;20.48;59.95;98356.97;6217538;28;20223;-47
2023/09/08 08:45:38;;;;;;;6.77;4.80;;;;;;;20.66;59.09;98360.81;6219493;28;20248;-48
2023/09/08 08:48:44;;;;;;;5.87;4.47;;;;;;;20.67;61.36;98359.72;6217046;28;20314;-48
2023/09/08 08:51:48;;;;;;;5.93;4.33;;;;;;;20.55;62.95;98343.91;6224483;28;20232;-47
2023/09/08 08:54:50;;;;;;;7.17;4.83;;;;;;;20.78;59.00;98352.25;6214276;28;20256;-50
2023/09/08 08:57:53;;;;;;;6.77;4.20;;;;;;;20.98;60.66;98362.00;6218288;28;20232;-49
2023/09/08 09:00:57;;;;;;;8.20;4.57;;;;;;;21.16;58.05;98368.53;6218969;28;20259;-50
2023/09/08 09:03:59;;;;;;;6.07;4.80;;;;;;;21.23;57.55;98360.81;6215791;28;20655;-51
2023/09/08 09:07:03;;;;;;;8.63;4.80;;;;;;;21.23;58.50;98361.66;6216824;28;20223;-48
2023/09/08 09:10:07;;;;;;;8.77;4.63;;;;;;;21.24;58.70;98355.13;6218891;28;20700;-52
2023/09/08 09:13:09;;;;;;;9.37;4.53;;;;;;;21.32;59.34;98365.31;6216576;28;20723;-50
2023/09/08 09:16:12;;;;;;;7.43;4.33;;;;;;;21.34;59.86;98362.31;6217187;28;20258;-51
2023/09/08 09:19:27;;;;;;;4.37;3.97;;;;;;;21.43;58.12;98348.88;6218787;28;20252;-52
2023/09/08 09:22:36;;;;;;;7.93;4.10;;;;;;;21.73;57.99;98363.84;6217466;28;20238;-48
2023/09/08 09:25:40;;;;;;;5.63;4.53;;;;;;;21.78;55.82;98344.78;6213966;28;20252;-48
2023/09/08 09:28:53;;;;;;;5.57;4.53;;;;;;;22.02;56.58;98353.56;6228998;22;20304;-88
2023/09/08 09:32:05;;;;;;;5.17;4.40;;;;;;;21.63;52.60;98303.28;6154275;28;20259;-89
2023/09/08 09:35:08;;;;;;;5.43;4.50;;;;;;;21.95;54.63;98326.00;6155120;28;20234;-88
2023/09/08 09:38:12;;;;;;;7.00;4.57;;;;;;;21.57;55.12;98228.53;6154449;28;20703;-88
2023/09/08 09:41:14;;;;;;;6.17;4.57;;;;;;;21.95;53.20;98281.78;6151098;28;20727;-88
2023/09/08 09:44:17;;;;;;;6.67;4.23;;;;;;;22.55;52.73;98344.13;6159734;28;20230;-89
2023/09/08 09:47:20;;;;;;;6.10;4.10;;;;;;;22.60;51.86;98342.09;6140227;28;20233;-87
2023/09/08 09:50:31;;;;;;;5.27;4.27;;;;;;;22.66;54.56;98337.38;6154872;28;20327;-87
2023/09/08 09:53:33;;;;;;;5.53;4.10;;;;;;;22.69;52.24;98322.38;6134885;28;20226;-88
2023/09/08 09:56:38;;;;;;;4.57;3.85;;;;;;;22.79;54.94;98336.53;6151353;28;20232;-90
2023/09/08 09:59:41;;;;;;;7.70;3.97;;;;;;;22.83;56.09;98323.16;6136336;28;20385;-86
2023/09/08 10:02:46;;;;;;;7.87;4.13;;;;;;;21.84;51.79;98151.00;6151295;28;20238;-87
2023/09/08 10:05:50;;;;;;;8.77;4.55;;;;;;;23.04;51.34;98334.38;6163579;28;20238;-87
2023/09/08 10:08:54;;;;;;;5.43;3.73;;;;;;;22.29;50.11;98205.41;6157372;28;20249;-89
2023/09/08 10:12:03;;;;;;;6.82;3.95;;;;;;;23.29;45.14;98322.91;6155534;28;20245;-87
2023/09/08 10:15:09;;;;;;;7.78;3.65;;;;;;;23.20;44.53;98283.19;6153699;28;20656;-87
2023/09/08 10:18:16;;;;;;;4.70;3.83;;;;;;;23.62;47.11;98326.16;6153567;28;20684;-89
2023/09/08 10:21:21;;;;;;;4.38;3.33;;;;;;;23.50;45.66;98281.63;6156234;28;20312;-95
2023/09/08 10:24:29;;;;;;;6.93;3.42;;;;;;;23.27;45.98;98240.88;6124446;28;20241;-88
2023/09/08 10:27:33;;;;;;;6.15;3.33;;;;;;;23.65;42.97;98263.03;6150904;28;20217;-88
2023/09/08 10:30:36;;;;;;;5.78;3.50;;;;;;;24.09;42.81;98315.72;6168988;28;20241;-88
2023/09/08 10:33:39;;;;;;;4.30;3.20;;;;;;;24.09;42.26;98293.13;6180580;28;20225;-88
2023/09/08 10:36:42;;;;;;;3.80;3.40;;;;;;;24.40;40.23;98302.06;6181408;28;20221;-88
2023/09/08 10:39:44;;;;;;;3.78;3.47;;;;;;;24.50;41.55;98303.69;6162805;28;20296;-87
2023/09/08 10:42:47;;;;;;;3.80;3.45;;;;;;;24.55;39.22;98308.16;6180530;28;20229;-88
2023/09/08 10:45:50;;;;;;;6.50;3.50;;;;;;;24.01;40.65;98223.94;6179253;28;20232;-87
2023/09/08 10:48:54;;;;;;;8.45;3.50;;;;;;;24.63;39.72;98310.09;6174711;28;20255;-86
2023/09/08 10:52:09;;;;;;;5.82;3.15;;;;;;;24.10;39.98;98230.19;6162355;28;20279;-87
2023/09/08 10:55:12;;;;;;;5.30;3.53;;;;;;;24.16;39.15;98231.66;6178743;28;20237;-86
2023/09/08 10:58:42;;;;;;;4.43;3.70;;;;;;;24.46;38.68;98259.13;6181442;28;20298;-86
2023/09/08 11:01:47;;;;;;;5.05;3.20;;;;;;;24.49;39.04;98269.38;6179622;28;20324;-87
2023/09/08 11:04:51;;;;;;;8.30;3.33;;;;;;;24.74;39.56;98291.53;6180739;28;20445;-87
2023/09/08 11:07:53;;;;;;;6.53;3.50;;;;;;;23.80;39.51;98125.75;6182099;28;20233;-86
2023/09/08 11:10:56;;;;;;;3.60;2.92;;;;;;;24.41;39.73;98226.59;6183304;28;20233;-86
2023/09/08 11:13:59;;;;;;;4.10;3.35;;;;;;;23.71;39.50;98130.38;6183554;28;20265;-86
2023/09/08 11:17:03;;;;;;;3.47;3.17;;;;;;;24.54;39.29;98263.00;6177946;28;20311;-87
2023/09/08 11:20:08;;;;;;;5.13;3.60;;;;;;;24.48;39.15;98232.34;6181243;28;20229;-87
2023/09/08 11:23:11;;;;;;;4.68;3.22;;;;;;;24.92;38.75;98271.31;6166435;28;20225;-88
2023/09/08 11:26:14;;;;;;;4.78;3.80;;;;;;;24.80;39.05;98228.38;6182554;28;20225;-86
2023/09/08 11:29:16;;;;;;;3.53;3.08;;;;;;;24.93;37.83;98265.56;6181479;28;20240;-92
2023/09/08 11:32:19;;;;;;;4.53;3.58;;;;;;;25.05;38.53;98284.00;6174265;28;20232;-90
2023/09/08 11:35:22;;;;;;;6.22;3.30;;;;;;;23.92;37.97;98106.88;6181979;28;20276;-90
2023/09/08 11:38:26;;;;;;;6.18;3.65;;;;;;;24.94;37.27;98218.09;6182708;28;20372;-87
2023/09/08 11:41:30;;;;;;;4.57;3.30;;;;;;;24.78;37.93;98221.63;6182987;28;20229;-91
2023/09/08 11:44:34;;;;;;;5.85;3.17;;;;;;;25.03;38.91;98264.44;6180878;28;20593;-90
2023/09/08 11:47:36;;;;;;;4.78;3.40;;;;;;;24.45;39.26;98164.91;6181516;28;20260;-90
2023/09/08 11:50:41;;;;;;;3.58;3.25;;;;;;;24.81;39.84;98210.88;6183008;28;20241;-92
2023/09/08 11:53:46;;;;;;;3.35;3.05;;;;;;;24.86;39.29;98196.28;6166068;28;20229;-91
2023/09/08 11:56:49;;;;;;;4.25;3.30;;;;;;;24.96;38.60;98210.38;6180693;28;20284;-91
2023/09/08 11:59:52;;;;;;;4.03;3.15;;;;;;;25.48;38.72;98261.34;6189605;28;20704;-91
2023/09/08 12:02:55;;;;;;;4.45;3.40;;;;;;;25.40;37.55;98270.34;6180512;28;20658;-92
2023/09/08 12:05:58;;;;;;;3.92;3.58;;;;;;;24.95;38.61;98218.91;6167265;28;20690;-92
2023/09/08 12:09:05;;;;;;;3.85;3.33;;;;;;;25.04;38.79;98222.41;6163935;28;20620;-91
2023/09/08 12:12:13;;;;;;;5.50;3.70;;;;;;;25.26;39.03;98254.16;6177263;28;20217;-92
2023/09/08 12:15:37;;;;;;;3.22;2.92;;;;;;;25.24;39.99;98253.69;6180382;28;20719;-92
2023/09/08 12:18:40;;;;;;;4.43;3.50;;;;;;;25.33;39.96;98250.94;6176042;28;20295;-93
2023/09/08 12:21:56;;;;;;;6.07;3.88;;;;;;;25.33;39.58;98243.56;6180592;28;20225;-90
2023/09/08 12:25:01;;;;;;;4.22;3.55;;;;;;;25.48;38.96;98242.25;6163839;28;20299;-91
2023/09/08 12:28:05;;;;;;;5.20;3.53;;;;;;;25.15;38.13;98171.88;6179375;28;20319;-92
2023/09/08 12:31:08;;;;;;;3.83;3.42;;;;;;;24.41;39.32;98080.31;6165629;28;20233;-91
2023/09/08 12:34:12;;;;;;;5.45;3.80;;;;;;;25.00;39.68;98163.41;6165074;28;20261;-92
2023/09/08 12:37:20;;;;;;;5.47;4.03;;;;;;;24.26;39.39;98055.50;6176021;28;20306;-91
2023/09/08 12:40:22;;;;;;;7.03;3.40;;;;;;;24.70;40.37;98109.59;6179806;28;20237;-92
2023/09/08 12:43:25;;;;;;;6.15;3.90;;;;;;;24.38;38.65;98045.59;6178636;28;20225;-91
2023/09/08 12:46:31;;;;;;;5.55;4.13;;;;;;;25.09;38.58;98214.09;6175005;28;20237;-93
2023/09/08 12:49:34;;;;;;;4.38;3.30;;;;;;;23.48;39.58;97941.19;6163976;28;20705;-91
2023/09/08 12:52:37;;;;;;;6.03;3.45;;;;;;;24.18;40.03;98040.75;6163841;28;20228;-93
2023/09/08 12:55:39;;;;;;;3.80;3.30;;;;;;;25.18;38.65;98178.63;6164602;28;20237;-85
2023/09/08 12:58:42;;;;;;;8.10;3.78;;;;;;;24.93;40.26;98148.34;6179307;28;20291;-87
2023/09/08 13:01:44;;;;;;;9.52;4.13;;;;;;;24.68;38.84;98103.69;6178253;28;20279;-87
2023/09/08 13:04:48;;;;;;;4.57;3.28;;;;;;;25.14;38.42;98199.50;6164306;28;20244;-85
2023/09/08 13:07:51;;;;;;;5.03;3.50;;;;;;;24.83;39.56;98132.34;6163678;28;20253;-85
2023/09/08 13:10:53;;;;;;;4.97;4.10;;;;;;;25.31;39.51;98204.88;6178629;28;20232;-85
2023/09/08 13:13:56;;;;;;;4.40;3.75;;;;;;;25.12;38.57;98156.19;6179395;28;20711;-85
2023/09/08 13:16:59;;;;;;;6.32;3.42;;;;;;;25.20;39.26;98169.00;6178557;28;20229;-85
2023/09/08 13:20:03;;;;;;;3.95;3.55;;;;;;;25.08;39.97;98151.72;6178992;28;20229;-84
2023/09/08 13:23:05;;;;;;;5.63;3.70;;;;;;;25.03;38.64;98157.31;6180525;28;20279;-85
2023/09/08 13:26:08;;;;;;;5.85;3.83;;;;;;;25.24;38.31;98173.81;6164581;28;20706;-87
2023/09/08 13:29:11;;;;;;;3.55;3.22;;;;;;;25.02;39.56;98161.16;6158897;28;20233;-86
2023/09/08 13:32:13;;;;;;;5.28;3.35;;;;;;;24.93;40.52;98172.88;6180966;28;20239;-85
2023/09/08 13:35:17;;;;;;;6.38;3.50;;;;;;;25.12;40.03;98204.44;6166149;28;20731;-86
2023/09/08 13:38:19;;;;;;;5.35;3.67;;;;;;;25.20;39.98;98193.53;6176345;28;20328;-86
2023/09/08 13:41:22;;;;;;;7.88;3.85;;;;;;;24.88;39.32;98153.19;6162942;28;20290;-86
2023/09/08 13:44:25;;;;;;;5.07;3.60;;;;;;;25.09;39.21;98170.47;6179379;28;20787;-85
2023/09/08 13:47:28;;;;;;;7.25;3.67;;;;;;;24.94;39.71;98136.31;6175260;28;20556;-85
2023/09/08 13:50:32;;;;;;;5.35;3.78;;;;;;;25.52;39.79;98190.53;6180632;28;20261;-85
2023/09/08 13:53:36;;;;;;;4.72;4.03;;;;;;;24.83;39.66;98120.66;6180095;28;20581;-85
2023/09/08 13:56:42;;;;;;;4.85;3.63;;;;;;;25.16;40.17;98180.88;6170544;28;20233;-86
2023/09/08 13:59:47;;;;;;;5.65;3.53;;;;;;;25.07;40.22;98186.34;6158247;28;20730;-86
2023/09/08 14:02:51;;;;;;;4.18;3.78;;;;;;;24.88;39.27;98147.72;6178742;28;20225;-86
2023/09/08 14:06:00;;;;;;;3.78;3.45;;;;;;;24.86;39.61;98130.88;6177767;28;20256;-85
2023/09/08 14:09:10;;;;;;;4.47;3.75;;;;;;;25.33;38.03;98142.66;6179737;28;20630;-81
2023/09/08 14:12:16;;;;;;;6.82;3.70;;;;;;;24.95;39.92;98137.91;6178772;28;20227;-84
2023/09/08 14:15:22;;;;;;;4.80;3.95;;;;;;;24.99;41.19;98167.25;6179245;28;20239;-85
2023/09/08 14:18:25;;;;;;;4.25;3.83;;;;;;;24.98;40.68;98169.19;6179470;28;20533;-84